This is the latest recevied weather packets stored in our database for station/object OE1HTB-13. If no packets are shown the sender has not sent any weather packets the latest 10 day(s).
| Time | Temp. | Humidity | Pressure | Rain* | Wind** | Luminosity | Snow |
|---|---|---|---|---|---|---|---|
| 1777965371 | 17.22° C | 61% | 1007.9 hPa | 0 mm | - | 547 W/m² | - |
| 1777964470 | 15.56° C | 66% | 1008 hPa | 0 mm | - | 394 W/m² | - |
| 1777963570 | 15° C | 65% | 1008 hPa | 0 mm | - | 192 W/m² | - |
| 1777962670 | 15.56° C | 65% | 1007.8 hPa | 0 mm | - | 162 W/m² | - |
| 1777961770 | 15° C | 65% | 1007.8 hPa | 0 mm | - | 239 W/m² | - |
| 1777960870 | 15° C | 65% | 1007.8 hPa | 0 mm | - | 137 W/m² | - |
| 1777959976 | 15° C | 65% | 1007.6 hPa | 0 mm | - | 128 W/m² | - |
| 1777959075 | 15° C | 64% | 1007.6 hPa | 0 mm | - | 142 W/m² | - |
| 1777958174 | 13.33° C | 71% | 1007.6 hPa | 0 mm | - | 130 W/m² | - |
| 1777957274 | 11.67° C | 77% | 1007.7 hPa | 0 mm | - | 160 W/m² | - |
| 1777956374 | 11.67° C | 77% | 1007.5 hPa | 0 mm | - | 86 W/m² | - |
| 1777955474 | 11.11° C | 77% | 1007.5 hPa | 0 mm | - | 35 W/m² | - |
| 1777954574 | 11.11° C | 76% | 1007.6 hPa | 0 mm | - | 26 W/m² | - |
| 1777953674 | 11.11° C | 75% | 1007.5 hPa | 0 mm | - | 18 W/m² | - |
| 1777952775 | 11.67° C | 73% | 1007.6 hPa | 0 mm | - | 7 W/m² | - |
| 1777951873 | 11.67° C | 73% | 1007.6 hPa | 0 mm | - | 0 W/m² | - |
| 1777950973 | 11.67° C | 72% | 1007.6 hPa | 0 mm | - | 0 W/m² | - |
| 1777950073 | 11.67° C | 71% | 1007.7 hPa | 0 mm | - | 0 W/m² | - |
| 1777949173 | 12.22° C | 71% | 1007.8 hPa | 0 mm | - | 0 W/m² | - |
| 1777948273 | 12.22° C | 70% | 1007.8 hPa | 0 mm | - | 0 W/m² | - |
| 1777947373 | 12.22° C | 70% | 1008 hPa | 0 mm | - | 0 W/m² | - |
| 1777946472 | 12.22° C | 70% | 1008.1 hPa | 0 mm | - | 0 W/m² | - |
| 1777945572 | 12.22° C | 69% | 1008.1 hPa | 0 mm | - | 0 W/m² | - |
| 1777944672 | 12.22° C | 69% | 1008.1 hPa | 0 mm | - | 0 W/m² | - |
| 1777943772 | 12.78° C | 68% | 1008.2 hPa | 0 mm | - | 0 W/m² | - |
* Rain latest hour (hover to see other rain measurements)
** Current wind speed in m/s (hover to see current wind gust speed)